SLI1460 MMMX-MMQT
Flight info
| Callsign | SLI1460 |
|---|---|
| Flight time | 0h 29m |
| Altitude | 24000 |
| Route | SEBON3B SEBON UT144 QET |
| Aircraft | E145/M-SDFGIRW/S |
Departure
| Time | 2026-05-08 23:11 |
|---|---|
| Airport | Mexico City Benito Juárez International Airport (MMMX) |
Arrival
| Time | 2026-05-08 23:40 |
|---|---|
| Airport | Querétaro Intercontinental Airport (MMQT) |
| Time | Latitude | Longitude | Altitude | Speed | Heading |
|---|---|---|---|---|---|
| 2026-05-08 22:28 | 19.42474 | -99.08347 | 7346 ft | 0 kts | 23° |
| 2026-05-08 23:08 | 19.42475 | -99.08347 | 7346 ft | 0 kts | 23° |
| 2026-05-08 23:08 | 19.42476 | -99.08346 | 7346 ft | 0 kts | 24° |
| 2026-05-08 23:09 | 19.42490 | -99.08338 | 7346 ft | 3 kts | 39° |
| 2026-05-08 23:09 | 19.42515 | -99.08313 | 7346 ft | 5 kts | 42° |
| 2026-05-08 23:09 | 19.42549 | -99.08330 | 7346 ft | 8 kts | 292° |
| 2026-05-08 23:09 | 19.42578 | -99.08405 | 7346 ft | 12 kts | 312° |
| 2026-05-08 23:10 | 19.42625 | -99.08485 | 7346 ft | 13 kts | 295° |
| 2026-05-08 23:10 | 19.42662 | -99.08577 | 7346 ft | 13 kts | 302° |
| 2026-05-08 23:10 | 19.42726 | -99.08544 | 7346 ft | 12 kts | 58° |
| 2026-05-08 23:10 | 19.42886 | -99.08259 | 7349 ft | 79 kts | 58° |
| 2026-05-08 23:11 | 19.43288 | -99.07569 | 7345 ft | 138 kts | 60° |
| 2026-05-08 23:11 | 19.43836 | -99.06561 | 7484 ft | 168 kts | 56° |
| 2026-05-08 23:11 | 19.44479 | -99.05455 | 7954 ft | 181 kts | 56° |
| 2026-05-08 23:11 | 19.45108 | -99.04285 | 8493 ft | 189 kts | 69° |
| 2026-05-08 23:12 | 19.45255 | -99.02940 | 9127 ft | 192 kts | 95° |
| 2026-05-08 23:12 | 19.44913 | -99.01572 | 9776 ft | 192 kts | 114° |
| 2026-05-08 23:12 | 19.44285 | -99.00342 | 10437 ft | 191 kts | 123° |
| 2026-05-08 23:12 | 19.43519 | -98.99206 | 11043 ft | 192 kts | 135° |
| 2026-05-08 23:13 | 19.42473 | -98.98305 | 11545 ft | 197 kts | 153° |
| 2026-05-08 23:13 | 19.41178 | -98.97884 | 12057 ft | 198 kts | 179° |
| 2026-05-08 23:13 | 19.39822 | -98.98132 | 12535 ft | 200 kts | 208° |
| 2026-05-08 23:13 | 19.38744 | -98.99029 | 13113 ft | 197 kts | 231° |
| 2026-05-08 23:14 | 19.38156 | -99.00309 | 13664 ft | 197 kts | 257° |
| 2026-05-08 23:14 | 19.37913 | -99.01754 | 14183 ft | 199 kts | 261° |
| 2026-05-08 23:14 | 19.37758 | -99.03204 | 14676 ft | 205 kts | 264° |
| 2026-05-08 23:14 | 19.37648 | -99.04789 | 14894 ft | 229 kts | 264° |
| 2026-05-08 23:15 | 19.37551 | -99.06466 | 15606 ft | 224 kts | 264° |
| 2026-05-08 23:15 | 19.37489 | -99.08007 | 16511 ft | 190 kts | 266° |
| 2026-05-08 23:15 | 19.37473 | -99.09298 | 17007 ft | 173 kts | 271° |
| 2026-05-08 23:15 | 19.37806 | -99.10557 | 17027 ft | 185 kts | 285° |
| 2026-05-08 23:16 | 19.38054 | -99.11945 | 17024 ft | 192 kts | 272° |
| 2026-05-08 23:16 | 19.38062 | -99.13303 | 17347 ft | 182 kts | 263° |
| 2026-05-08 23:16 | 19.37943 | -99.14661 | 17465 ft | 186 kts | 261° |
| 2026-05-08 23:16 | 19.37775 | -99.16042 | 17600 ft | 189 kts | 259° |
| 2026-05-08 23:17 | 19.37581 | -99.17439 | 17693 ft | 194 kts | 258° |
| 2026-05-08 23:17 | 19.37355 | -99.18853 | 17821 ft | 196 kts | 258° |
| 2026-05-08 23:17 | 19.37122 | -99.20275 | 17961 ft | 197 kts | 258° |
| 2026-05-08 23:17 | 19.36882 | -99.21769 | 17843 ft | 212 kts | 258° |
| 2026-05-08 23:18 | 19.36629 | -99.23335 | 17749 ft | 221 kts | 258° |
| 2026-05-08 23:18 | 19.36384 | -99.24972 | 17643 ft | 229 kts | 259° |
| 2026-05-08 23:18 | 19.36098 | -99.26697 | 17448 ft | 254 kts | 258° |
| 2026-05-08 23:18 | 19.35801 | -99.28760 | 16885 ft | 306 kts | 262° |
| 2026-05-08 23:19 | 19.35618 | -99.31083 | 17025 ft | 329 kts | 265° |
| 2026-05-08 23:19 | 19.35464 | -99.33562 | 17363 ft | 342 kts | 264° |
| 2026-05-08 23:19 | 19.35381 | -99.36079 | 17934 ft | 347 kts | 269° |
| 2026-05-08 23:19 | 19.35481 | -99.38653 | 18451 ft | 353 kts | 272° |
| 2026-05-08 23:20 | 19.35637 | -99.41222 | 19190 ft | 349 kts | 272° |
| 2026-05-08 23:20 | 19.35726 | -99.43771 | 19912 ft | 346 kts | 270° |
| 2026-05-08 23:20 | 19.35788 | -99.46348 | 20411 ft | 350 kts | 270° |
| 2026-05-08 23:20 | 19.35851 | -99.48951 | 20955 ft | 351 kts | 269° |
| 2026-05-08 23:21 | 19.35808 | -99.51537 | 21584 ft | 349 kts | 265° |
| 2026-05-08 23:21 | 19.35583 | -99.54092 | 22097 ft | 349 kts | 263° |
| 2026-05-08 23:21 | 19.35324 | -99.56661 | 22492 ft | 354 kts | 262° |
| 2026-05-08 23:21 | 19.34965 | -99.59280 | 22906 ft | 358 kts | 262° |
| 2026-05-08 23:22 | 19.34904 | -99.61927 | 23251 ft | 366 kts | 272° |
| 2026-05-08 23:22 | 19.35224 | -99.64660 | 23365 ft | 379 kts | 280° |
| 2026-05-08 23:22 | 19.35939 | -99.67426 | 23717 ft | 385 kts | 287° |
| 2026-05-08 23:22 | 19.36899 | -99.70064 | 24468 ft | 379 kts | 293° |
| 2026-05-08 23:23 | 19.38226 | -99.72533 | 24604 ft | 390 kts | 302° |
| 2026-05-08 23:23 | 19.39954 | -99.74830 | 24574 ft | 401 kts | 311° |
| 2026-05-08 23:23 | 19.41994 | -99.76869 | 24528 ft | 410 kts | 319° |
| 2026-05-08 23:23 | 19.44355 | -99.78667 | 24547 ft | 417 kts | 326° |
| 2026-05-08 23:24 | 19.46895 | -99.80222 | 24595 ft | 423 kts | 330° |
| 2026-05-08 23:24 | 19.49585 | -99.81583 | 24583 ft | 430 kts | 336° |
| 2026-05-08 23:24 | 19.52425 | -99.82690 | 24667 ft | 433 kts | 341° |
| 2026-05-08 23:24 | 19.55314 | -99.83561 | 24989 ft | 430 kts | 343° |
| 2026-05-08 23:25 | 19.58252 | -99.84390 | 24926 ft | 432 kts | 343° |
| 2026-05-08 23:25 | 19.61174 | -99.85254 | 24781 ft | 435 kts | 342° |
| 2026-05-08 23:25 | 19.64136 | -99.86105 | 24687 ft | 437 kts | 344° |
| 2026-05-08 23:25 | 19.67078 | -99.86916 | 24594 ft | 438 kts | 344° |
| 2026-05-08 23:26 | 19.70082 | -99.87675 | 24489 ft | 440 kts | 345° |
| 2026-05-08 23:26 | 19.73068 | -99.88399 | 24510 ft | 438 kts | 346° |
| 2026-05-08 23:26 | 19.76084 | -99.89063 | 24487 ft | 438 kts | 347° |
| 2026-05-08 23:26 | 19.79098 | -99.89662 | 24397 ft | 440 kts | 348° |
| 2026-05-08 23:27 | 19.82150 | -99.90251 | 24420 ft | 438 kts | 348° |
| 2026-05-08 23:27 | 19.85178 | -99.90859 | 24395 ft | 438 kts | 348° |
| 2026-05-08 23:27 | 19.88179 | -99.91483 | 24420 ft | 436 kts | 347° |
| 2026-05-08 23:27 | 19.91127 | -99.92118 | 24492 ft | 434 kts | 347° |
| 2026-05-08 23:28 | 19.94120 | -99.92790 | 24580 ft | 431 kts | 346° |
| 2026-05-08 23:28 | 19.97083 | -99.93449 | 24461 ft | 434 kts | 347° |
| 2026-05-08 23:28 | 20.00020 | -99.94138 | 24347 ft | 436 kts | 346° |
| 2026-05-08 23:28 | 20.03023 | -99.94846 | 24394 ft | 430 kts | 347° |
| 2026-05-08 23:29 | 20.05871 | -99.95442 | 24202 ft | 410 kts | 349° |
| 2026-05-08 23:29 | 20.08686 | -99.95890 | 23775 ft | 398 kts | 351° |
| 2026-05-08 23:29 | 20.11432 | -99.96259 | 23344 ft | 387 kts | 352° |
| 2026-05-08 23:29 | 20.14124 | -99.96571 | 22850 ft | 378 kts | 353° |
| 2026-05-08 23:30 | 20.16781 | -99.96837 | 22293 ft | 372 kts | 354° |
| 2026-05-08 23:30 | 20.19361 | -99.96999 | 21684 ft | 369 kts | 356° |
| 2026-05-08 23:30 | 20.21931 | -99.97054 | 21108 ft | 365 kts | 358° |
| 2026-05-08 23:30 | 20.24449 | -99.97075 | 20508 ft | 360 kts | 358° |
| 2026-05-08 23:31 | 20.26992 | -99.97048 | 19816 ft | 359 kts | 0° |
| 2026-05-08 23:31 | 20.29475 | -99.96889 | 19116 ft | 358 kts | 3° |
| 2026-05-08 23:31 | 20.31945 | -99.96661 | 18479 ft | 355 kts | 3° |
| 2026-05-08 23:31 | 20.34418 | -99.96429 | 17864 ft | 352 kts | 5° |
| 2026-05-08 23:32 | 20.36807 | -99.95933 | 17203 ft | 351 kts | 12° |
| 2026-05-08 23:32 | 20.39156 | -99.95239 | 16529 ft | 350 kts | 14° |
| 2026-05-08 23:32 | 20.41522 | -99.94443 | 15686 ft | 354 kts | 17° |
| 2026-05-08 23:32 | 20.43837 | -99.93561 | 14799 ft | 359 kts | 18° |
| 2026-05-08 23:33 | 20.46171 | -99.92653 | 14347 ft | 346 kts | 18° |
| 2026-05-08 23:33 | 20.48426 | -99.91791 | 13959 ft | 334 kts | 17° |
| 2026-05-08 23:33 | 20.50602 | -99.90998 | 13496 ft | 326 kts | 15° |
| 2026-05-08 23:33 | 20.52741 | -99.90266 | 13074 ft | 317 kts | 14° |
| 2026-05-08 23:34 | 20.54884 | -99.89635 | 12475 ft | 316 kts | 11° |
| 2026-05-08 23:34 | 20.57045 | -99.89650 | 11727 ft | 312 kts | 338° |
| 2026-05-08 23:34 | 20.58774 | -99.90851 | 11363 ft | 296 kts | 310° |
| 2026-05-08 23:34 | 20.59751 | -99.92708 | 10728 ft | 281 kts | 286° |
| 2026-05-08 23:35 | 20.59886 | -99.94599 | 10318 ft | 231 kts | 262° |
| 2026-05-08 23:35 | 20.59659 | -99.96121 | 10303 ft | 190 kts | 257° |
| 2026-05-08 23:35 | 20.59416 | -99.97502 | 9991 ft | 192 kts | 260° |
| 2026-05-08 23:35 | 20.59193 | -99.98869 | 9859 ft | 181 kts | 257° |
| 2026-05-08 23:36 | 20.58913 | -100.00159 | 9590 ft | 176 kts | 256° |
| 2026-05-08 23:36 | 20.58685 | -100.01444 | 9298 ft | 177 kts | 262° |
| 2026-05-08 23:36 | 20.58652 | -100.02772 | 9034 ft | 183 kts | 273° |
| 2026-05-08 23:36 | 20.58861 | -100.04092 | 8919 ft | 176 kts | 281° |
| 2026-05-08 23:37 | 20.59153 | -100.05345 | 8687 ft | 170 kts | 283° |
| 2026-05-08 23:37 | 20.59432 | -100.06549 | 8445 ft | 164 kts | 282° |
| 2026-05-08 23:37 | 20.59677 | -100.07716 | 8228 ft | 160 kts | 279° |
| 2026-05-08 23:37 | 20.59911 | -100.08890 | 8134 ft | 159 kts | 281° |
| 2026-05-08 23:38 | 20.60143 | -100.10046 | 8005 ft | 159 kts | 280° |
| 2026-05-08 23:38 | 20.60355 | -100.11185 | 7755 ft | 151 kts | 280° |
| 2026-05-08 23:38 | 20.60549 | -100.12279 | 7516 ft | 146 kts | 279° |
| 2026-05-08 23:38 | 20.60741 | -100.13307 | 7215 ft | 136 kts | 281° |
| 2026-05-08 23:39 | 20.60940 | -100.14261 | 6906 ft | 136 kts | 281° |
| 2026-05-08 23:39 | 20.61108 | -100.15292 | 6724 ft | 140 kts | 279° |
| 2026-05-08 23:39 | 20.61307 | -100.16290 | 6504 ft | 133 kts | 281° |
| 2026-05-08 23:39 | 20.61487 | -100.17241 | 6327 ft | 123 kts | 281° |
| 2026-05-08 23:40 | 20.61633 | -100.18024 | 6300 ft | 88 kts | 281° |
| 2026-05-08 23:40 | 20.61738 | -100.18581 | 6291 ft | 70 kts | 283° |
| 2026-05-08 23:40 | 20.61838 | -100.19047 | 6287 ft | 59 kts | 297° |
| 2026-05-08 23:40 | 20.62102 | -100.19319 | 6285 ft | 47 kts | 4° |
| 2026-05-08 23:41 | 20.62188 | -100.19078 | 6287 ft | 39 kts | 110° |
| 2026-05-08 23:41 | 20.62123 | -100.18803 | 6289 ft | 38 kts | 99° |
| 2026-05-08 23:41 | 20.62073 | -100.18542 | 6291 ft | 34 kts | 103° |
| 2026-05-08 23:41 | 20.62050 | -100.18438 | 6293 ft | 0 kts | 83° |